Time;durP1;ratioP1;P1;durP2;ratioP2;P2;SDS_P1;SDS_P2;PMS_P1;PMS_P2;Temp;Humidity;BMP_temperature;BMP_pressure;BME280_temperature;BME280_humidity;BME280_pressure;Samples;Min_cycle;Max_cycle;Signal;HPM_P1;HPM_P2
2023/04/04 00:00:26;;;;;;;4.3;3.9;;;;;;;;;;;;;
2023/04/04 00:02:56;;;;;;;6.6;4;;;;;;;;;;;;;
2023/04/04 00:05:27;;;;;;;5.1;4.1;;;;;;;;;;;;;
2023/04/04 00:08:40;;;;;;;6;4.3;;;;;;;;;;;;;
2023/04/04 00:10:50;;;;;;;6.4;4.5;;;;;;;;;;;;;
2023/04/04 00:13:15;;;;;;;4.7;4.2;;;;;;;;;;;;;
2023/04/04 00:15:44;;;;;;;5.1;4.2;;;;;;;;;;;;;
2023/04/04 00:18:38;;;;;;;6.6;4.2;;;;;;;;;;;;;
2023/04/04 00:20:51;;;;;;;5;4.1;;;;;;;;;;;;;
2023/04/04 00:23:18;;;;;;;5;4.2;;;;;;;;;;;;;
2023/04/04 00:25:43;;;;;;;5.4;4.1;;;;;;;;;;;;;
2023/04/04 00:28:08;;;;;;;5.6;4.1;;;;;;;;;;;;;
2023/04/04 00:30:34;;;;;;;6.4;4.5;;;;;;;;;;;;;
2023/04/04 00:33:05;;;;;;;5.4;4;;;;;;;;;;;;;
2023/04/04 00:35:33;;;;;;;5.9;4;;;;;;;;;;;;;
2023/04/04 00:37:59;;;;;;;4.4;4;;;;;;;;;;;;;
2023/04/04 00:40:34;;;;;;;6.4;4.3;;;;;;;;;;;;;
2023/04/04 00:43:00;;;;;;;5.5;4.1;;;;;;;;;;;;;
2023/04/04 00:45:27;;;;;;;5.5;3.9;;;;;;;;;;;;;
2023/04/04 00:47:57;;;;;;;4.9;4.4;;;;;;;;;;;;;
2023/04/04 00:50:22;;;;;;;5.3;4.3;;;;;;;;;;;;;
2023/04/04 00:52:50;;;;;;;6.1;4.5;;;;;;;;;;;;;
2023/04/04 00:55:16;;;;;;;6.8;4.6;;;;;;;;;;;;;
2023/04/04 00:57:43;;;;;;;4.6;4.1;;;;;;;;;;;;;
2023/04/04 01:00:16;;;;;;;5;4.3;;;;;;;;;;;;;
2023/04/04 01:02:47;;;;;;;5;4.3;;;;;;;;;;;;;
2023/04/04 01:05:13;;;;;;;6.4;4.6;;;;;;;;;;;;;
2023/04/04 01:07:40;;;;;;;5.3;4.7;;;;;;;;;;;;;
2023/04/04 01:10:06;;;;;;;6.2;4.4;;;;;;;;;;;;;
2023/04/04 01:12:39;;;;;;;5.3;4.3;;;;;;;;;;;;;
2023/04/04 01:15:06;;;;;;;5.7;4.7;;;;;;;;;;;;;
2023/04/04 01:17:31;;;;;;;5.9;4.8;;;;;;;;;;;;;
2023/04/04 01:19:56;;;;;;;7.8;5;;;;;;;;;;;;;
2023/04/04 01:22:21;;;;;;;7.1;5.4;;;;;;;;;;;;;
2023/04/04 01:24:48;;;;;;;5.8;4.4;;;;;;;;;;;;;
2023/04/04 01:27:15;;;;;;;6;4.4;;;;;;;;;;;;;
2023/04/04 01:29:43;;;;;;;7;4.7;;;;;;;;;;;;;
2023/04/04 01:32:08;;;;;;;5.3;4.5;;;;;;;;;;;;;
2023/04/04 01:34:33;;;;;;;5.8;4.6;;;;;;;;;;;;;
2023/04/04 01:36:59;;;;;;;5.6;4.5;;;;;;;;;;;;;
2023/04/04 01:39:24;;;;;;;5.1;4.6;;;;;;;;;;;;;
2023/04/04 01:41:49;;;;;;;6.3;4.6;;;;;;;;;;;;;
2023/04/04 01:44:14;;;;;;;5.2;4.3;;;;;;;;;;;;;
2023/04/04 01:46:42;;;;;;;6;4.5;;;;;;;;;;;;;
2023/04/04 01:49:07;;;;;;;7.9;5.1;;;;;;;;;;;;;
2023/04/04 01:51:32;;;;;;;7;4.7;;;;;;;;;;;;;
2023/04/04 01:53:58;;;;;;;5;4.5;;;;;;;;;;;;;
2023/04/04 01:56:23;;;;;;;6.6;4.9;;;;;;;;;;;;;
2023/04/04 01:58:49;;;;;;;4.8;4.3;;;;;;;;;;;;;
2023/04/04 02:01:14;;;;;;;7.5;4.7;;;;;;;;;;;;;
2023/04/04 02:03:41;;;;;;;6.6;4.8;;;;;;;;;;;;;
2023/04/04 02:06:06;;;;;;;5;4.5;;;;;;;;;;;;;
2023/04/04 02:08:31;;;;;;;6.9;4.7;;;;;;;;;;;;;
2023/04/04 02:10:56;;;;;;;6.8;4.5;;;;;;;;;;;;;
2023/04/04 02:13:22;;;;;;;6.4;4.7;;;;;;;;;;;;;
2023/04/04 02:15:48;;;;;;;7.5;4.7;;;;;;;;;;;;;
2023/04/04 02:18:14;;;;;;;6.3;4.7;;;;;;;;;;;;;
2023/04/04 02:20:39;;;;;;;5.7;4.3;;;;;;;;;;;;;
2023/04/04 02:23:04;;;;;;;6.1;4.8;;;;;;;;;;;;;
2023/04/04 02:25:43;;;;;;;6.3;4.6;;;;;;;;;;;;;
2023/04/04 02:28:10;;;;;;;6.5;5.3;;;;;;;;;;;;;
2023/04/04 02:30:33;;;;;;;7;4.9;;;;;;;;;;;;;
2023/04/04 02:32:59;;;;;;;6;4.6;;;;;;;;;;;;;
2023/04/04 02:35:24;;;;;;;8.7;5.1;;;;;;;;;;;;;
2023/04/04 02:37:50;;;;;;;7;4.7;;;;;;;;;;;;;
2023/04/04 03:51:51;;;;;;;7;4.6;;;;;;;;;;;;;
2023/04/04 03:54:17;;;;;;;6.5;4.9;;;;;;;;;;;;;
2023/04/04 03:56:42;;;;;;;8.5;5.4;;;;;;;;;;;;;
2023/04/04 03:59:08;;;;;;;6.9;5;;;;;;;;;;;;;
2023/04/04 04:02:33;;;;;;;7.3;5;;;;;;;-0.03;78.87207;940.7224;;;;
2023/04/04 04:05:01;;;;;;;6.5;4.8;;;;;;;-0.1;78.87207;940.7126;;;;
2023/04/04 04:07:26;;;;;;;6.5;5.3;;;;;;;-0.23;79.83691;940.7554;;;;
2023/04/04 04:09:55;;;;;;;7.3;5.3;;;;;;;-0.28;80.15039;940.748;;;;
2023/04/04 04:12:20;;;;;;;8.6;5.1;;;;;;;-0.28;80.68457;940.8269;;;;
2023/04/04 04:14:47;;;;;;;5.2;4.7;;;;;;;-0.18;80.4707;940.7859;;;;
2023/04/04 04:17:16;;;;;;;7.6;5;;;;;;;-0.13;80.02344;940.7964;;;;
2023/04/04 04:19:42;;;;;;;8.6;5.6;;;;;;;-0.17;80.03906;940.8582;;;;
2023/04/04 04:22:10;;;;;;;7.6;5.5;;;;;;;-0.06;79.83691;940.8166;;;;
2023/04/04 04:24:35;;;;;;;5.9;4.9;;;;;;;-0.02;79.53125;940.7504;;;;
2023/04/04 04:27:01;;;;;;;5.6;4.9;;;;;;;0.02;79.18164;940.8678;;;;
2023/04/04 04:29:27;;;;;;;6.8;4.6;;;;;;;-0.03;79.08398;940.8413;;;;
2023/04/04 04:31:52;;;;;;;6.8;5.1;;;;;;;0.01;78.92578;940.8306;;;;
2023/04/04 04:34:17;;;;;;;5.4;4.8;;;;;;;0.01;78.8584;940.8064;;;;
2023/04/04 04:37:01;;;;;;;8;5.4;;;;;;;0.01;78.76758;940.8788;;;;
2023/04/04 04:39:30;;;;;;;6.3;5.2;;;;;;;-0.02;78.7959;940.8506;;;;
2023/04/04 04:41:55;;;;;;;8.8;5.9;;;;;;;0.02;78.72656;940.868;;;;
2023/04/04 04:44:25;;;;;;;6.8;5;;;;;;;0.08;78.43555;940.9556;;;;
2023/04/04 04:46:50;;;;;;;6.8;5.3;;;;;;;0.04;78.3291;940.9512;;;;
2023/04/04 04:49:18;;;;;;;7.8;5.1;;;;;;;-0.12;78.92383;940.9816;;;;
2023/04/04 04:51:43;;;;;;;7.5;5.5;;;;;;;-0.07;79.2334;941.0013;;;;
2023/04/04 04:54:10;;;;;;;7;5.5;;;;;;;-0.01;79.24512;941.0002;;;;
2023/04/04 04:56:34;;;;;;;8.9;5.9;;;;;;;0.06;78.72363;940.9062;;;;
2023/04/04 04:59:02;;;;;;;7.2;5.4;;;;;;;-0.02;78.71973;940.983;;;;
2023/04/04 05:01:27;;;;;;;6.1;5.1;;;;;;;0.02;78.88086;940.9655;;;;
2023/04/04 05:03:55;;;;;;;6.6;5.6;;;;;;;0;78.69922;940.9744;;;;
2023/04/04 05:06:27;;;;;;;6.5;5.4;;;;;;;-0.04;78.58105;940.9891;;;;
2023/04/04 05:08:56;;;;;;;7.3;5.4;;;;;;;-0.11;78.87988;940.9688;;;;
2023/04/04 05:11:26;;;;;;;8.3;5.5;;;;;;;-0.09;78.7959;940.9949;;;;
2023/04/04 05:13:51;;;;;;;7.7;5.1;;;;;;;-0.12;78.90137;940.9989;;;;
2023/04/04 05:16:19;;;;;;;7.6;5.2;;;;;;;-0.11;79.06934;940.9998;;;;
2023/04/04 05:18:44;;;;;;;7.9;5.6;;;;;;;-0.07;79.04395;940.9819;;;;
2023/04/04 05:21:12;;;;;;;6.8;5.1;;;;;;;0;78.64355;941.0104;;;;
2023/04/04 05:27:17;;;;;;;7.9;5.5;;;;;;;0.01;78.79199;941.0435;;;;
2023/04/04 05:30:11;;;;;;;7.8;5.6;;;;;;;0.07;78.42285;941.0731;;;;
2023/04/04 05:32:36;;;;;;;8;5.4;;;;;;;0.14;77.82324;941.0692;;;;
2023/04/04 05:35:01;;;;;;;6.8;5.2;;;;;;;0.14;77.85742;941.0514;;;;
2023/04/04 05:37:27;;;;;;;7.3;5.2;;;;;;;0.13;78.36816;941.049;;;;
2023/04/04 05:39:52;;;;;;;7.7;5.1;;;;;;;0.25;77.70996;941.0908;;;;
2023/04/04 05:42:21;;;;;;;7.9;5.8;;;;;;;0.32;77.2998;941.0756;;;;
2023/04/04 05:48:16;;;;;;;6.6;5.6;;;;;;;0.32;76.86523;941.1453;;;;
2023/04/04 05:50:44;;;;;;;7.5;5.3;;;;;;;0.28;76.8252;941.1622;;;;
2023/04/04 05:53:09;;;;;;;6.1;4.9;;;;;;;0.29;77.09375;941.1548;;;;
2023/04/04 05:55:35;;;;;;;6.7;4.9;;;;;;;0.38;77.2207;941.1522;;;;
2023/04/04 05:58:00;;;;;;;6.4;5.1;;;;;;;0.43;77.12988;941.1537;;;;
2023/04/04 06:00:28;;;;;;;6.6;5.1;;;;;;;0.53;76.7334;941.1531;;;;
2023/04/04 06:02:54;;;;;;;7;5;;;;;;;0.56;76.2832;941.1431;;;;
2023/04/04 06:05:20;;;;;;;8.7;5.3;;;;;;;0.62;75.97266;941.1536;;;;
2023/04/04 06:07:45;;;;;;;6.4;4.7;;;;;;;0.77;75.29492;941.2401;;;;
2023/04/04 06:10:12;;;;;;;7.6;5.1;;;;;;;0.9;74.77051;941.2251;;;;
2023/04/04 06:12:37;;;;;;;6.6;4.9;;;;;;;0.89;74.7373;941.2154;;;;
2023/04/04 06:15:03;;;;;;;5.8;4.8;;;;;;;0.85;75.01953;941.2648;;;;
2023/04/04 06:17:28;;;;;;;5.9;4.7;;;;;;;0.87;74.39746;941.2653;;;;
2023/04/04 06:19:54;;;;;;;7.6;5.1;;;;;;;0.86;74.91895;941.2921;;;;
2023/04/04 06:22:20;;;;;;;6.5;4.9;;;;;;;0.87;74.3418;941.2722;;;;
2023/04/04 06:24:47;;;;;;;6.9;5;;;;;;;0.84;74.83789;941.2541;;;;
2023/04/04 06:27:12;;;;;;;6.9;5;;;;;;;0.77;75.31738;941.2275;;;;
2023/04/04 06:29:40;;;;;;;7.4;4.6;;;;;;;0.7;75.31641;941.1958;;;;
2023/04/04 06:32:05;;;;;;;8.1;5.4;;;;;;;0.74;75.51172;941.204;;;;
2023/04/04 06:34:30;;;;;;;6.3;5.4;;;;;;;0.85;75.34375;941.2307;;;;
2023/04/04 06:36:55;;;;;;;6.9;5.2;;;;;;;0.82;75.91895;941.2408;;;;
2023/04/04 06:39:21;;;;;;;6.6;4.5;;;;;;;0.94;74.95703;941.2569;;;;
2023/04/04 06:41:47;;;;;;;8;5.4;;;;;;;0.85;75.15234;941.1903;;;;
2023/04/04 06:44:14;;;;;;;5.8;4.7;;;;;;;1.02;74.67969;941.1663;;;;
2023/04/04 06:46:40;;;;;;;6.4;5;;;;;;;0.94;74.79004;941.1622;;;;
2023/04/04 06:49:09;;;;;;;6.8;5.2;;;;;;;1.07;74.1084;941.0793;;;;
2023/04/04 06:51:38;;;;;;;6.8;5;;;;;;;0.93;74.2959;941.0909;;;;
2023/04/04 06:54:03;;;;;;;6.6;4.9;;;;;;;1.1;74.77441;941.0605;;;;
2023/04/04 06:56:29;;;;;;;7.2;5.2;;;;;;;1.1;73.8252;941.1358;;;;
2023/04/04 06:58:55;;;;;;;8;5;;;;;;;0.98;74.20508;941.1317;;;;
2023/04/04 07:01:21;;;;;;;6.5;4.9;;;;;;;1.14;74.2334;941.0916;;;;
2023/04/04 07:06:14;;;;;;;6.5;5.2;;;;;;;1.33;73.65332;941.0815;;;;
2023/04/04 07:08:41;;;;;;;7.9;5.3;;;;;;;1.2;74.47754;941.0206;;;;
2023/04/04 07:11:06;;;;;;;6.7;5.1;;;;;;;1.08;74.25586;941.1105;;;;
2023/04/04 07:13:35;;;;;;;5.8;4.9;;;;;;;1.04;75.00684;941.1537;;;;
2023/04/04 07:16:00;;;;;;;7;4.8;;;;;;;1.26;73.85156;941.0421;;;;
2023/04/04 07:18:25;;;;;;;6.7;4.4;;;;;;;1.6;73.05078;941.0309;;;;
2023/04/04 07:20:51;;;;;;;7.2;4.8;;;;;;;1.91;71.5127;941.0363;;;;
2023/04/04 07:23:16;;;;;;;6.9;4.8;;;;;;;2.09;70.63672;941.0408;;;;
2023/04/04 07:25:42;;;;;;;5.8;4.3;;;;;;;2.38;69.95801;940.9915;;;;
2023/04/04 07:28:07;;;;;;;8.2;5;;;;;;;2.75;69.09961;941.0026;;;;
2023/04/04 07:30:35;;;;;;;6.6;4.2;;;;;;;4.34;66.79199;940.9422;;;;
2023/04/04 07:33:00;;;;;;;5.7;4.2;;;;;;;5.53;58.85254;940.8524;;;;
2023/04/04 07:35:28;;;;;;;5.7;4.3;;;;;;;5.9;56.19336;940.8738;;;;
2023/04/04 07:37:53;;;;;;;4.8;4;;;;;;;5.65;55.94629;940.9073;;;;
2023/04/04 07:40:18;;;;;;;5.6;3.9;;;;;;;5.55;56.84766;940.9408;;;;
2023/04/04 07:42:46;;;;;;;6.2;4.1;;;;;;;5.88;55.73828;940.9171;;;;
2023/04/04 07:45:11;;;;;;;6.2;4;;;;;;;5.18;57.82422;940.8758;;;;
2023/04/04 07:47:38;;;;;;;7;3.9;;;;;;;5.26;58.19629;940.9255;;;;
2023/04/04 07:50:03;;;;;;;5.9;3.9;;;;;;;6.06;58.01074;940.9493;;;;
2023/04/04 07:52:32;;;;;;;5.5;4.1;;;;;;;6.27;56.19727;940.8958;;;;
2023/04/04 07:54:59;;;;;;;4.3;3.9;;;;;;;6.73;52.47754;940.9286;;;;
2023/04/04 07:57:24;;;;;;;5.4;3.7;;;;;;;6.09;54.72656;940.9367;;;;
2023/04/04 07:59:53;;;;;;;4.8;3.7;;;;;;;6.87;52.5166;940.8362;;;;
2023/04/04 08:02:18;;;;;;;5.4;3.7;;;;;;;8.48;48.78223;940.8484;;;;
2023/04/04 08:04:44;;;;;;;4.4;3.5;;;;;;;8.48;49.97656;940.8716;;;;
2023/04/04 08:07:10;;;;;;;4.8;3.5;;;;;;;10.57;45.28516;940.7933;;;;
2023/04/04 08:09:35;;;;;;;3.9;3.5;;;;;;;12.23;41.96289;940.7461;;;;
2023/04/04 08:12:02;;;;;;;4.2;3.2;;;;;;;13.95;37.96387;940.6886;;;;
2023/04/04 08:14:27;;;;;;;3.7;3.3;;;;;;;13.75;37.17578;940.6866;;;;
2023/04/04 08:16:55;;;;;;;4.9;3;;;;;;;11.04;41.68848;940.7872;;;;
2023/04/04 08:19:20;;;;;;;3.3;2.9;;;;;;;12.49;39.31641;940.7328;;;;
2023/04/04 08:21:48;;;;;;;4;2.9;;;;;;;12.94;36.3252;940.6718;;;;
2023/04/04 08:24:13;;;;;;;5.3;3.2;;;;;;;12.66;37.41504;940.6958;;;;
2023/04/04 08:26:40;;;;;;;4;3;;;;;;;11.2;39.38281;940.7261;;;;
2023/04/04 08:29:35;;;;;;;3.9;3;;;;;;;10.12;41.75977;940.7327;;;;
2023/04/04 08:32:01;;;;;;;4.2;3.3;;;;;;;9.95;42.0957;940.7164;;;;
2023/04/04 08:34:27;;;;;;;4.3;3.3;;;;;;;11.51;39.0791;940.7035;;;;
2023/04/04 08:36:53;;;;;;;3.5;3;;;;;;;12.88;36.6416;940.6715;;;;
2023/04/04 08:39:18;;;;;;;5.4;3.2;;;;;;;10.92;40.00879;940.6278;;;;
2023/04/04 08:41:43;;;;;;;4.4;3;;;;;;;11.32;38.86719;940.6311;;;;
2023/04/04 08:44:08;;;;;;;4.1;2.8;;;;;;;11.93;37.8457;940.665;;;;
2023/04/04 08:46:33;;;;;;;4.5;2.8;;;;;;;12.18;37.04199;940.6423;;;;
2023/04/04 08:48:59;;;;;;;3;2.7;;;;;;;11.71;37.92871;940.716;;;;
2023/04/04 08:51:25;;;;;;;4.2;2.6;;;;;;;13.13;35.20508;940.676;;;;
2023/04/04 08:53:52;;;;;;;3.7;2.5;;;;;;;12.96;35.20215;940.6326;;;;
2023/04/04 08:56:17;;;;;;;2.7;2.4;;;;;;;11.84;36.50879;940.6739;;;;
2023/04/04 08:58:46;;;;;;;3.8;2.4;;;;;;;12.91;34.32617;940.6548;;;;
2023/04/04 09:01:11;;;;;;;3.1;2.3;;;;;;;13.01;34.01172;940.6257;;;;
2023/04/04 09:03:38;;;;;;;2.9;2.3;;;;;;;13.54;33.97363;940.5388;;;;
2023/04/04 09:06:03;;;;;;;2.5;2.2;;;;;;;13.81;32.78613;940.6209;;;;
2023/04/04 09:08:28;;;;;;;3.3;2.5;;;;;;;12.98;34.58398;940.6631;;;;
2023/04/04 09:10:55;;;;;;;2.9;2.5;;;;;;;12.6;34.86328;940.6256;;;;
2023/04/04 09:13:20;;;;;;;2.4;2.2;;;;;;;12.12;35.29395;940.6595;;;;
2023/04/04 09:21:59;;;;;;;2.4;2;;;;;;;9.29;41.38281;940.7394;;;;
2023/04/04 09:24:25;;;;;;;4.1;2.5;;;;;;;9.01;41.87988;940.7204;;;;
2023/04/04 09:26:50;;;;;;;2.9;2.6;;;;;;;7.83;43.97754;940.7766;;;;
2023/04/04 09:29:18;;;;;;;4.3;2.9;;;;;;;8.93;43.65723;940.7336;;;;
2023/04/04 09:31:45;;;;;;;3.7;2.7;;;;;;;9.11;41.41113;940.6738;;;;
2023/04/04 09:34:12;;;;;;;3.5;2.5;;;;;;;10.12;41.32617;940.6707;;;;
2023/04/04 09:36:36;;;;;;;4;3;;;;;;;10.49;40.05957;940.6696;;;;
2023/04/04 09:39:02;;;;;;;2.8;2.5;;;;;;;10.59;40.14844;940.709;;;;
2023/04/04 09:41:28;;;;;;;3;2.4;;;;;;;11.01;38.90723;940.7037;;;;
2023/04/04 09:43:53;;;;;;;3;2.4;;;;;;;10.09;40.22852;940.6464;;;;
2023/04/04 09:46:18;;;;;;;3.5;2.5;;;;;;;9.66;40.01758;940.5969;;;;
2023/04/04 09:48:43;;;;;;;3.3;2.6;;;;;;;9.9;41.85156;940.6646;;;;
2023/04/04 09:51:08;;;;;;;3.9;2.7;;;;;;;11.03;39.74512;940.7609;;;;
2023/04/04 09:53:34;;;;;;;3.3;2.3;;;;;;;10.24;38.86133;940.6498;;;;
2023/04/04 09:55:59;;;;;;;4.5;2.8;;;;;;;10.35;39.87598;940.712;;;;
2023/04/04 09:58:27;;;;;;;2.8;2.5;;;;;;;10.49;39.34082;940.6178;;;;
2023/04/04 10:00:52;;;;;;;3.5;2.8;;;;;;;9.68;40.89648;940.6641;;;;
2023/04/04 10:03:18;;;;;;;3.7;2.6;;;;;;;9.38;40.01367;940.555;;;;
2023/04/04 10:05:44;;;;;;;4.2;2.6;;;;;;;9.47;42.2998;940.661;;;;
2023/04/04 10:08:10;;;;;;;3.6;2.6;;;;;;;9.77;40.07227;940.6074;;;;
2023/04/04 10:10:35;;;;;;;3.8;2.6;;;;;;;9.62;41.44922;940.6614;;;;
2023/04/04 10:13:00;;;;;;;2.9;2.6;;;;;;;10.24;40.19629;940.6395;;;;
2023/04/04 10:15:26;;;;;;;3.6;2.4;;;;;;;9.74;40.11523;940.5664;;;;
2023/04/04 10:17:54;;;;;;;2.9;2.6;;;;;;;8.8;41.07422;940.5156;;;;
2023/04/04 10:20:18;;;;;;;3.9;2.9;;;;;;;8.86;41.70508;940.5956;;;;
2023/04/04 10:22:48;;;;;;;3;2.4;;;;;;;8.91;39.09473;940.5672;;;;
2023/04/04 10:25:15;;;;;;;5.2;2.7;;;;;;;8.99;41.29785;940.6355;;;;
2023/04/04 10:27:41;;;;;;;3;2.6;;;;;;;8.53;42.40137;940.5354;;;;
2023/04/04 10:30:11;;;;;;;5.4;2.6;;;;;;;8.89;41.19629;940.4278;;;;
2023/04/04 10:32:36;;;;;;;2.3;2.1;;;;;;;8.82;40.05273;940.4838;;;;
2023/04/04 10:35:01;;;;;;;4.1;2.8;;;;;;;9.21;41.0791;940.5564;;;;
2023/04/04 10:37:28;;;;;;;2.5;2.3;;;;;;;9.65;40.50488;940.6038;;;;
2023/04/04 10:39:54;;;;;;;2.4;2.2;;;;;;;10.83;36.74414;940.5311;;;;
2023/04/04 10:42:18;;;;;;;2.9;2.2;;;;;;;11.14;36.93066;940.4075;;;;
2023/04/04 10:44:44;;;;;;;2.5;2.1;;;;;;;10.52;38.25879;940.3675;;;;
2023/04/04 10:47:13;;;;;;;3.5;2.5;;;;;;;10.09;38.42578;940.4714;;;;
2023/04/04 10:49:37;;;;;;;3.3;2.2;;;;;;;10.18;38.89063;940.4941;;;;
2023/04/04 10:52:02;;;;;;;2.9;2.2;;;;;;;9.21;39.61133;940.4135;;;;
2023/04/04 10:54:28;;;;;;;3.6;2.7;;;;;;;9.55;39.27734;940.4881;;;;
2023/04/04 10:56:53;;;;;;;6.8;2.4;;;;;;;9.75;39.59277;940.468;;;;
2023/04/04 10:59:18;;;;;;;3.2;2.6;;;;;;;10.39;39.63867;940.3861;;;;
2023/04/04 11:01:47;;;;;;;3.3;2.2;;;;;;;11.12;37.96875;940.4231;;;;
2023/04/04 11:04:12;;;;;;;3.2;2.2;;;;;;;11.85;34.67773;940.338;;;;
2023/04/04 11:06:37;;;;;;;2.6;2.4;;;;;;;10.19;38.66309;940.4425;;;;
2023/04/04 11:09:02;;;;;;;2.7;2.2;;;;;;;10.53;36.63867;940.4464;;;;
2023/04/04 11:11:28;;;;;;;2.3;2.1;;;;;;;11.52;37.45508;940.226;;;;
2023/04/04 11:13:53;;;;;;;2.9;2.4;;;;;;;11.78;35.34766;940.2715;;;;
2023/04/04 11:16:20;;;;;;;2.5;2.3;;;;;;;10.83;35.78418;940.3367;;;;
2023/04/04 11:18:44;;;;;;;4.5;2.5;;;;;;;10.17;41.54785;940.342;;;;
2023/04/04 11:21:08;;;;;;;3.1;2.6;;;;;;;9.71;41.41113;940.282;;;;
2023/04/04 11:23:35;;;;;;;2.4;2.2;;;;;;;11.33;37.18652;940.302;;;;
2023/04/04 11:26:02;;;;;;;2.9;2.4;;;;;;;10.89;37.2627;940.2928;;;;
2023/04/04 11:28:25;;;;;;;3;2.5;;;;;;;10.68;37.97656;940.267;;;;
2023/04/04 11:30:51;;;;;;;3;2.7;;;;;;;10.89;37.7666;940.2706;;;;
2023/04/04 11:33:17;;;;;;;2.5;2.2;;;;;;;10.66;38.69336;940.2469;;;;
2023/04/04 11:35:42;;;;;;;3.6;2.5;;;;;;;10;38.91992;940.2494;;;;
2023/04/04 11:38:07;;;;;;;4.1;2.2;;;;;;;10.16;38.61426;940.2654;;;;
2023/04/04 11:40:36;;;;;;;3.6;2.5;;;;;;;10.37;40.85938;940.2043;;;;
2023/04/04 11:43:03;;;;;;;4.2;2.6;;;;;;;9.76;38.19238;940.1636;;;;
2023/04/04 11:45:26;;;;;;;3;2.4;;;;;;;9.91;39.5957;940.1884;;;;
2023/04/04 11:47:52;;;;;;;2.5;2.3;;;;;;;10.09;37.82129;940.2206;;;;
2023/04/04 11:50:18;;;;;;;2.6;2.3;;;;;;;9.94;40.47656;940.2723;;;;
2023/04/04 11:52:43;;;;;;;5;2.9;;;;;;;10.32;39.2334;940.2085;;;;
2023/04/04 11:55:10;;;;;;;2.9;2.4;;;;;;;10.5;38.24609;940.1754;;;;
2023/04/04 11:57:36;;;;;;;5;2.7;;;;;;;10.73;37.88965;940.1808;;;;
2023/04/04 12:00:05;;;;;;;3.6;2.5;;;;;;;10.67;37.49512;940.1761;;;;
2023/04/04 12:02:30;;;;;;;4.2;2.5;;;;;;;10.3;39.30176;940.1167;;;;
2023/04/04 12:08:23;;;;;;;2.6;2.4;;;;;;;11.08;36.83301;940.1429;;;;
2023/04/04 12:10:50;;;;;;;2.9;2.5;;;;;;;10.78;37.05957;940.1614;;;;
2023/04/04 12:13:15;;;;;;;4.2;2.5;;;;;;;10.23;37.44531;940.1014;;;;
2023/04/04 12:15:43;;;;;;;3.5;2.7;;;;;;;10.24;38.0625;940.116;;;;
2023/04/04 12:18:10;;;;;;;2.9;2.4;;;;;;;10.79;36.22559;940.1448;;;;
2023/04/04 12:20:36;;;;;;;2.9;2.6;;;;;;;10.82;37.48535;940.0865;;;;
2023/04/04 12:23:02;;;;;;;3.2;2.6;;;;;;;10.88;37.94727;940.1509;;;;
2023/04/04 12:25:32;;;;;;;3.1;2.5;;;;;;;11.09;36.41211;940.0969;;;;
2023/04/04 12:27:53;;;;;;;3.2;2.4;;;;;;;11.78;34.87793;940.1238;;;;
2023/04/04 12:30:21;;;;;;;2.6;2.2;;;;;;;12.38;33.86035;940.109;;;;
2023/04/04 12:32:46;;;;;;;3.3;2.2;;;;;;;13.3;31.85254;940.1292;;;;
2023/04/04 12:35:14;;;;;;;3.7;2.4;;;;;;;12.81;32.34375;940.022;;;;
2023/04/04 12:37:37;;;;;;;3;2.7;;;;;;;11.56;34.12793;939.9655;;;;
2023/04/04 12:40:03;;;;;;;2.8;2.3;;;;;;;11.11;36.29883;939.8931;;;;
2023/04/04 12:42:30;;;;;;;3.6;2.3;;;;;;;11.43;33.56836;939.9819;;;;
2023/04/04 12:44:54;;;;;;;3.4;2.5;;;;;;;11.35;34.75098;939.9953;;;;
2023/04/04 12:47:22;;;;;;;2.7;2.3;;;;;;;11.42;36.26758;939.9101;;;;
2023/04/04 12:49:47;;;;;;;3.3;2.3;;;;;;;11.95;36.03711;939.9669;;;;
2023/04/04 12:52:11;;;;;;;3.9;2.7;;;;;;;13.42;31.08984;939.9322;;;;
2023/04/04 12:54:37;;;;;;;5.3;2.6;;;;;;;13.56;30.66406;939.8563;;;;
2023/04/04 12:57:04;;;;;;;4.3;2.4;;;;;;;12.01;34.64453;939.8962;;;;
2023/04/04 12:59:29;;;;;;;3.4;2.3;;;;;;;10.78;34.91211;939.8412;;;;
2023/04/04 13:01:56;;;;;;;2.8;2.2;;;;;;;11.38;36.28613;939.9199;;;;
2023/04/04 13:04:21;;;;;;;3;2.4;;;;;;;12.03;33.69531;939.8448;;;;
2023/04/04 13:06:47;;;;;;;2.9;2.5;;;;;;;11.85;34.3457;939.8649;;;;
2023/04/04 13:09:11;;;;;;;3.5;2.5;;;;;;;11.4;35.07617;939.9271;;;;
2023/04/04 13:11:38;;;;;;;3;2.6;;;;;;;11.69;34.64258;939.9692;;;;
2023/04/04 13:14:02;;;;;;;3.1;2.5;;;;;;;11.33;35.91699;939.9178;;;;
2023/04/04 13:16:27;;;;;;;3.8;2.7;;;;;;;10.18;39.1416;939.8328;;;;
2023/04/04 13:18:53;;;;;;;2.5;2.2;;;;;;;10.93;34.54688;939.8909;;;;
2023/04/04 13:21:18;;;;;;;3.3;2.6;;;;;;;11.75;33.41016;939.7614;;;;
2023/04/04 13:23:43;;;;;;;3.2;2.5;;;;;;;11.88;34.07227;939.9361;;;;
2023/04/04 13:26:08;;;;;;;3.4;2.6;;;;;;;12.15;34.50684;939.8583;;;;
2023/04/04 13:28:35;;;;;;;4;2.9;;;;;;;12.25;33.0127;939.8783;;;;
2023/04/04 13:31:37;;;;;;;2.8;2.5;;;;;;;12.69;32.93164;939.885;;;;
2023/04/04 13:34:05;;;;;;;3.2;2.4;;;;;;;14.06;30.69824;939.7937;;;;
2023/04/04 13:36:31;;;;;;;2.6;2.4;;;;;;;13.22;32.83301;939.7837;;;;
2023/04/04 13:38:58;;;;;;;2.5;2.3;;;;;;;11.52;33.23145;939.8192;;;;
2023/04/04 13:41:23;;;;;;;5.7;2.6;;;;;;;10.66;35.42773;939.8535;;;;
2023/04/04 13:43:50;;;;;;;3.4;2.8;;;;;;;10.07;36.73633;939.8831;;;;
2023/04/04 13:46:16;;;;;;;3.3;2.7;;;;;;;9.6;39.37402;939.8706;;;;
2023/04/04 13:48:42;;;;;;;3.7;2.7;;;;;;;9.29;40.18848;939.8471;;;;
2023/04/04 13:51:13;;;;;;;2.9;2.5;;;;;;;9.19;38.90234;939.8203;;;;
2023/04/04 13:53:40;;;;;;;3.6;2.7;;;;;;;8.64;38.88867;939.8767;;;;
2023/04/04 13:56:05;;;;;;;3.6;2.9;;;;;;;8.73;40.81738;939.8005;;;;
2023/04/04 13:58:30;;;;;;;4.1;2.8;;;;;;;9.19;37.77637;939.9174;;;;
2023/04/04 14:00:57;;;;;;;4.2;2.8;;;;;;;9.7;37.16016;939.8929;;;;
2023/04/04 14:03:22;;;;;;;2.8;2.5;;;;;;;10.15;36.09277;939.6781;;;;
2023/04/04 14:05:50;;;;;;;4.7;3.1;;;;;;;9.24;38.88477;939.8104;;;;
2023/04/04 14:08:15;;;;;;;4.8;2.8;;;;;;;8.09;40.06445;939.8922;;;;
2023/04/04 14:10:42;;;;;;;3.8;3.2;;;;;;;7.59;41.33398;939.9097;;;;
2023/04/04 14:13:07;;;;;;;4.2;3.3;;;;;;;7.41;43.03906;939.941;;;;
2023/04/04 14:15:39;;;;;;;3.7;3.1;;;;;;;7.8;41.78516;939.8504;;;;
2023/04/04 14:18:04;;;;;;;3.1;2.8;;;;;;;7.88;41.29395;939.954;;;;
2023/04/04 14:20:29;;;;;;;3.4;3.1;;;;;;;7.8;41.45605;939.8869;;;;
2023/04/04 14:22:54;;;;;;;4.3;3.2;;;;;;;7.58;41.96777;940.0988;;;;
2023/04/04 14:25:21;;;;;;;3.1;2.8;;;;;;;7.79;39.60547;939.9469;;;;
2023/04/04 14:28:19;;;;;;;4.9;3.2;;;;;;;8.1;40.20215;939.9678;;;;
2023/04/04 14:30:47;;;;;;;6.1;2.8;;;;;;;8.27;39.04785;939.993;;;;
2023/04/04 14:33:12;;;;;;;3.4;3.1;;;;;;;8.3;41.28809;940.0198;;;;
2023/04/04 14:35:37;;;;;;;3.7;3.1;;;;;;;8.25;40.25;939.9324;;;;
2023/04/04 14:38:03;;;;;;;3.2;2.9;;;;;;;8.05;40.52734;939.9977;;;;
2023/04/04 14:40:28;;;;;;;3.4;3.1;;;;;;;7.57;41.81934;940.0764;;;;
2023/04/04 14:42:54;;;;;;;3.6;2.8;;;;;;;7.91;40.40039;940.0443;;;;
2023/04/04 14:45:19;;;;;;;3;2.7;;;;;;;7.82;40.01758;940.024;;;;
2023/04/04 14:47:47;;;;;;;3.2;2.9;;;;;;;7.78;39.20801;940.0974;;;;
2023/04/04 14:50:12;;;;;;;3.6;2.9;;;;;;;7.83;39.33691;939.9497;;;;
2023/04/04 14:52:40;;;;;;;3.5;3.2;;;;;;;7.56;42.0332;940.0396;;;;
2023/04/04 14:55:05;;;;;;;4;2.8;;;;;;;7.46;40.07422;939.9692;;;;
2023/04/04 14:57:31;;;;;;;3.8;3.2;;;;;;;7.2;41.35156;940.1752;;;;
2023/04/04 14:59:55;;;;;;;3.3;2.7;;;;;;;7.23;39.87109;940.1858;;;;
2023/04/04 15:02:23;;;;;;;5.2;3;;;;;;;7.2;39.67578;940.1595;;;;
2023/04/04 15:04:48;;;;;;;4.1;2.8;;;;;;;7.05;40.74902;940.1541;;;;
2023/04/04 15:07:16;;;;;;;3.6;2.9;;;;;;;6.9;40.81348;940.1863;;;;
2023/04/04 15:09:41;;;;;;;4;2.9;;;;;;;7.04;40.0459;940.1816;;;;
2023/04/04 15:12:07;;;;;;;3.7;2.9;;;;;;;7.18;39.65039;940.162;;;;
2023/04/04 15:14:32;;;;;;;3.8;2.9;;;;;;;7.16;39.88672;940.0634;;;;
2023/04/04 15:17:00;;;;;;;3.1;2.8;;;;;;;6.83;41.03418;940.1973;;;;
2023/04/04 15:19:25;;;;;;;3.2;2.8;;;;;;;6.58;42.01758;940.1906;;;;
2023/04/04 15:21:52;;;;;;;4.6;3.1;;;;;;;6.43;41.84375;940.1192;;;;
2023/04/04 15:24:16;;;;;;;3.8;3.2;;;;;;;6.25;42.48242;940.1298;;;;
2023/04/04 15:26:43;;;;;;;3.2;2.9;;;;;;;6.15;41.79395;940.1892;;;;
2023/04/04 15:29:08;;;;;;;3.7;3.2;;;;;;;6.28;42.58691;940.1202;;;;
2023/04/04 15:31:33;;;;;;;5.6;3.7;;;;;;;6.3;42.83691;940.192;;;;
2023/04/04 15:33:59;;;;;;;3.8;3.1;;;;;;;5.98;42.79395;940.0811;;;;
2023/04/04 15:36:25;;;;;;;4.9;3.9;;;;;;;5.76;45.67383;940.2391;;;;
2023/04/04 15:38:49;;;;;;;4.4;3.4;;;;;;;5.47;45.22656;940.2237;;;;
2023/04/04 15:41:16;;;;;;;3.9;3.3;;;;;;;5.34;44.79492;940.2776;;;;
2023/04/04 15:43:41;;;;;;;3.8;3.4;;;;;;;5.32;46.13477;940.2289;;;;
2023/04/04 15:46:07;;;;;;;6.1;3.3;;;;;;;5.35;45.93555;940.2299;;;;
2023/04/04 15:48:33;;;;;;;4;3.6;;;;;;;5.17;45.00195;940.2433;;;;
2023/04/04 15:51:01;;;;;;;4.4;3.5;;;;;;;5.3;43.80957;940.281;;;;
2023/04/04 15:53:24;;;;;;;4.6;3.5;;;;;;;5.24;44.66016;940.2364;;;;
2023/04/04 15:55:52;;;;;;;4.6;3.2;;;;;;;5.3;44.34961;940.2967;;;;
2023/04/04 15:58:17;;;;;;;5.1;3.7;;;;;;;5.49;44.40332;940.3055;;;;
2023/04/04 16:00:42;;;;;;;5.5;3.3;;;;;;;5.56;44.44531;940.1767;;;;
2023/04/04 16:03:07;;;;;;;4.5;3.7;;;;;;;5.43;44.47754;940.2903;;;;
2023/04/04 16:05:34;;;;;;;3.8;3.4;;;;;;;5.62;43.65039;940.3455;;;;
2023/04/04 16:07:59;;;;;;;5.3;3.4;;;;;;;5.67;42.81934;940.3105;;;;
2023/04/04 16:10:28;;;;;;;4;3.4;;;;;;;5.45;43.67773;940.3564;;;;
2023/04/04 16:13:07;;;;;;;4;3.3;;;;;;;5.3;44.10156;940.3181;;;;
2023/04/04 16:15:39;;;;;;;3.4;3.1;;;;;;;5.37;45.32715;940.2003;;;;
2023/04/04 16:18:07;;;;;;;4.5;3.6;;;;;;;5.26;44.9209;940.2522;;;;
2023/04/04 16:20:31;;;;;;;5.4;3.3;;;;;;;5;46.19141;940.3558;;;;
2023/04/04 16:22:57;;;;;;;3.9;3.5;;;;;;;4.85;47.27832;940.275;;;;
2023/04/04 16:25:23;;;;;;;4.2;3.6;;;;;;;4.72;48.12109;940.3003;;;;
2023/04/04 16:27:48;;;;;;;4.7;4;;;;;;;4.72;46.84668;940.2506;;;;
2023/04/04 16:30:15;;;;;;;5.3;3.8;;;;;;;4.66;45.4209;940.1917;;;;
2023/04/04 16:32:41;;;;;;;5;3.8;;;;;;;4.67;45.64844;940.2427;;;;
2023/04/04 16:35:05;;;;;;;4.1;3.7;;;;;;;4.59;46.83398;940.2767;;;;
2023/04/04 16:37:31;;;;;;;4.4;3.9;;;;;;;4.54;46.71582;940.2725;;;;
2023/04/04 16:40:31;;;;;;;4.8;3.7;;;;;;;4.62;46.03613;940.334;;;;
2023/04/04 16:42:59;;;;;;;4.5;3.9;;;;;;;4.62;47.25293;940.293;;;;
2023/04/04 16:45:24;;;;;;;6.9;4.4;;;;;;;4.77;47.91211;940.2438;;;;
2023/04/04 16:47:50;;;;;;;4.4;3.3;;;;;;;4.64;45.09277;940.2778;;;;
2023/04/04 16:50:15;;;;;;;4.2;3.8;;;;;;;4.54;47.60352;940.3;;;;
2023/04/04 16:52:42;;;;;;;4.6;3.8;;;;;;;4.49;46.56348;940.2668;;;;